createdAt,value
2019-05-22T00:02:38.812Z,98937.75
2019-05-22T00:05:41.559Z,98940.90
2019-05-22T00:08:44.979Z,98936.81
2019-05-22T00:11:48.668Z,98935.77
2019-05-22T00:14:52.351Z,98942.42
2019-05-22T00:17:55.753Z,98935.89
2019-05-22T00:20:59.727Z,98938.04
2019-05-22T00:24:03.466Z,98936.18
2019-05-22T00:27:06.101Z,98936.48
2019-05-22T00:30:09.913Z,98933.57
2019-05-22T00:33:11.865Z,98925.31
2019-05-22T00:36:14.312Z,98928.55
2019-05-22T00:39:18.618Z,98927.75
2019-05-22T00:42:20.556Z,98937.44
2019-05-22T00:45:24.274Z,98937.70
2019-05-22T00:48:26.311Z,98941.45
2019-05-22T00:51:36.041Z,98945.06
2019-05-22T00:54:45.989Z,98944.47
2019-05-22T00:57:53.157Z,98942.84
2019-05-22T01:00:56.829Z,98950.75
2019-05-22T01:03:58.862Z,98948.39
2019-05-22T01:07:06.465Z,98945.53
2019-05-22T01:10:11.149Z,98946.08
2019-05-22T01:13:14.938Z,98936.27
2019-05-22T01:16:17.047Z,98950.88
2019-05-22T01:19:19.534Z,98944.14
2019-05-22T01:22:23.300Z,98948.19
2019-05-22T01:25:30.901Z,98949.91
2019-05-22T01:28:36.405Z,98941.56
2019-05-22T01:31:40.974Z,98937.27
2019-05-22T01:34:43.368Z,98937.27
2019-05-22T01:37:45.972Z,98940.05
2019-05-22T01:41:00.854Z,98937.95
2019-05-22T01:44:05.148Z,98945.23
2019-05-22T01:47:12.469Z,98939.55
2019-05-22T01:50:37.927Z,98943.34
2019-05-22T01:53:44.048Z,98945.82
2019-05-22T01:56:45.991Z,98940.52
2019-05-22T01:59:49.949Z,98932.09
2019-05-22T02:02:51.988Z,98921.99
2019-05-22T02:05:54.624Z,98931.00
2019-05-22T02:09:05.081Z,98932.77
2019-05-22T02:12:15.077Z,98936.56
2019-05-22T02:15:18.467Z,98937.53
2019-05-22T02:18:22.815Z,98937.06
2019-05-22T02:21:26.420Z,98944.47
2019-05-22T02:24:30.236Z,98950.25
2019-05-22T02:27:33.859Z,98958.58
2019-05-22T02:30:37.783Z,98953.28
2019-05-22T02:33:58.190Z,98948.27
2019-05-22T02:37:00.591Z,98946.58
2019-05-22T02:40:08.657Z,98949.61
2019-05-22T02:43:11.201Z,98948.59
2019-05-22T02:46:13.912Z,98964.81
2019-05-22T02:49:16.974Z,98964.34
2019-05-22T02:52:23.909Z,98969.19
2019-05-22T02:55:26.580Z,98966.63
2019-05-22T02:58:31.272Z,98974.70
2019-05-22T03:01:33.940Z,98966.31
2019-05-22T03:04:58.261Z,98966.31
2019-05-22T03:08:00.939Z,98971.62
2019-05-22T03:11:03.618Z,98967.49
2019-05-22T03:14:08.823Z,98979.50
2019-05-22T03:17:27.516Z,98969.98
2019-05-22T03:20:31.778Z,98970.83
2019-05-22T03:23:36.602Z,98970.53
2019-05-22T03:26:46.475Z,98959.23
2019-05-22T03:29:56.130Z,98967.20
2019-05-22T03:33:00.601Z,98969.81
2019-05-22T03:36:09.223Z,98965.97
2019-05-22T03:39:13.355Z,98968.88
2019-05-22T03:42:16.580Z,98971.08
2019-05-22T03:45:18.754Z,98969.64
2019-05-22T03:48:23.303Z,98970.64
2019-05-22T03:51:25.834Z,98970.64
2019-05-22T03:54:27.942Z,98974.80
2019-05-22T03:57:30.365Z,98978.06
2019-05-22T04:00:33.108Z,98971.37
2019-05-22T04:03:35.836Z,98971.24
2019-05-22T04:06:39.817Z,98966.64
2019-05-22T04:09:42.553Z,98974.40
2019-05-22T04:12:44.818Z,98977.27
2019-05-22T04:15:47.377Z,98977.27
2019-05-22T04:18:49.498Z,98974.35
2019-05-22T04:21:51.538Z,98989.64
2019-05-22T04:24:53.443Z,98985.34
2019-05-22T04:27:56.261Z,98989.14
2019-05-22T04:31:00.229Z,98984.55
2019-05-22T04:34:02.233Z,98987.03
2019-05-22T04:37:05.109Z,98988.88
2019-05-22T04:40:23.927Z,98991.66
2019-05-22T04:43:29.931Z,98988.41
2019-05-22T04:46:34.394Z,98994.63
2019-05-22T04:49:37.125Z,98995.30
2019-05-22T04:52:39.023Z,98997.84
2019-05-22T04:55:41.097Z,98998.52
2019-05-22T04:58:43.258Z,99004.23
2019-05-22T05:01:45.794Z,99004.31
2019-05-22T05:04:49.142Z,99010.55
2019-05-22T05:07:51.780Z,99016.20
2019-05-22T05:10:55.405Z,99008.66
2019-05-22T05:13:57.939Z,99014.88
2019-05-22T05:17:00.302Z,99020.16
2019-05-22T05:20:05.496Z,99022.80
2019-05-22T05:23:07.479Z,99025.91
2019-05-22T05:26:09.496Z,99034.46
2019-05-22T05:29:17.707Z,99040.23
2019-05-22T05:32:19.699Z,99036.78
2019-05-22T05:35:22.362Z,99038.01
2019-05-22T05:38:34.109Z,99039.44
2019-05-22T05:41:36.062Z,99037.09
2019-05-22T05:44:37.992Z,99033.47
2019-05-22T05:47:40.718Z,99045.52
2019-05-22T05:51:06.687Z,99039.48
2019-05-22T05:54:12.143Z,99032.48
2019-05-22T05:57:37.056Z,99037.34
2019-05-22T06:00:44.456Z,99034.73
2019-05-22T06:03:44.737Z,99040.47
2019-05-22T06:06:54.575Z,99053.36
2019-05-22T06:10:17.358Z,99048.79
2019-05-22T06:13:19.878Z,99055.19
2019-05-22T06:16:26.226Z,99060.84
2019-05-22T06:19:30.062Z,99058.61
2019-05-22T06:22:32.181Z,99070.46
2019-05-22T06:25:35.844Z,99067.69
2019-05-22T06:28:41.983Z,99073.24
2019-05-22T06:31:47.657Z,99082.05
2019-05-22T06:34:51.008Z,99081.59
2019-05-22T06:38:11.908Z,99077.79
2019-05-22T06:41:13.912Z,99083.48
2019-05-22T06:44:28.543Z,99082.93
2019-05-22T06:47:32.156Z,99079.34
2019-05-22T06:50:34.263Z,99079.14
2019-05-22T06:53:36.204Z,99082.05
2019-05-22T06:56:38.156Z,99084.73
2019-05-22T06:59:40.555Z,99086.83
2019-05-22T07:02:43.163Z,99084.02
2019-05-22T07:05:45.923Z,99089.45
2019-05-22T07:08:48.272Z,99088.74
2019-05-22T07:11:50.703Z,99098.69
2019-05-22T07:15:04.116Z,99093.37
2019-05-22T07:18:12.248Z,99084.31
2019-05-22T07:21:12.615Z,99095.19
2019-05-22T07:24:14.941Z,99094.55
2019-05-22T07:27:23.710Z,99099.59
2019-05-22T07:30:26.096Z,99103.17
2019-05-22T07:33:28.421Z,99097.60
2019-05-22T07:36:32.547Z,99102.09
2019-05-22T07:39:34.536Z,99114.61
2019-05-22T07:42:37.165Z,99118.88
2019-05-22T07:45:40.840Z,99121.70
2019-05-22T07:48:43.627Z,99127.86
2019-05-22T07:51:56.144Z,99129.46
2019-05-22T07:54:51.706Z,99127.65
2019-05-22T07:58:00.139Z,99129.54
2019-05-22T08:01:03.140Z,99132.03
2019-05-22T08:04:05.303Z,99138.02
2019-05-22T08:07:08.626Z,99137.55
2019-05-22T08:10:13.293Z,99146.11
2019-05-22T08:13:15.940Z,99142.31
2019-05-22T08:16:18.943Z,99134.97
2019-05-22T08:19:22.545Z,99140.28
2019-05-22T08:22:24.938Z,99144.95
2019-05-22T08:25:27.070Z,99144.05
2019-05-22T08:28:31.469Z,99146.98
2019-05-22T08:31:34.181Z,99149.97
2019-05-22T08:34:36.517Z,99144.59
2019-05-22T08:37:39.940Z,99147.94
2019-05-22T08:40:44.882Z,99155.56
2019-05-22T08:44:12.048Z,99161.80
2019-05-22T08:46:51.312Z,99167.22
2019-05-22T08:49:53.578Z,99170.33
2019-05-22T08:52:55.734Z,99170.28
2019-05-22T08:55:58.422Z,99178.82
2019-05-22T08:59:18.326Z,99176.99
2019-05-22T09:02:05.700Z,99183.09
2019-05-22T09:05:09.579Z,99179.46
2019-05-22T09:08:12.786Z,99191.38
2019-05-22T09:11:14.859Z,99185.45
2019-05-22T09:14:18.294Z,99192.64
2019-05-22T09:17:21.511Z,99187.66
2019-05-22T09:20:24.096Z,99202.14
2019-05-22T09:23:26.142Z,99208.02
2019-05-22T09:26:29.256Z,99186.11
2019-05-22T09:29:31.336Z,99198.41
2019-05-22T09:32:33.436Z,99195.45
2019-05-22T09:35:35.498Z,99206.09
2019-05-22T09:38:38.313Z,99206.09
2019-05-22T09:41:40.199Z,99214.98
2019-05-22T09:44:42.310Z,99207.55
2019-05-22T09:47:44.180Z,99215.94
2019-05-22T09:50:46.273Z,99223.42
2019-05-22T09:53:48.611Z,99228.41
2019-05-22T09:56:52.220Z,99231.41
2019-05-22T09:59:54.225Z,99236.22
2019-05-22T10:02:56.226Z,99227.39
2019-05-22T10:05:58.710Z,99236.66
2019-05-22T10:09:00.680Z,99237.81
2019-05-22T10:12:04.289Z,99240.02
2019-05-22T10:15:09.141Z,99241.86
2019-05-22T10:18:11.380Z,99241.86
2019-05-22T10:21:13.660Z,99247.59
2019-05-22T10:24:16.445Z,99263.75
2019-05-22T10:27:20.275Z,99270.97
2019-05-22T10:30:24.874Z,99270.97
2019-05-22T10:33:27.207Z,99270.68
2019-05-22T10:36:29.649Z,99273.02
2019-05-22T10:39:32.275Z,99273.84
2019-05-22T10:42:34.183Z,99276.16
2019-05-22T10:45:36.829Z,99277.95
2019-05-22T10:48:40.361Z,99279.33
2019-05-22T10:51:42.674Z,99281.61
2019-05-22T10:54:45.497Z,99281.61
2019-05-22T10:57:47.439Z,99283.42
2019-05-22T11:00:50.252Z,99291.01
2019-05-22T11:03:53.069Z,99298.64
2019-05-22T11:06:55.536Z,99304.84
2019-05-22T11:09:57.636Z,99304.58
2019-05-22T11:12:59.622Z,99310.44
2019-05-22T11:16:02.237Z,99316.33
2019-05-22T11:19:05.382Z,99316.95
2019-05-22T11:22:09.382Z,99324.59
2019-05-22T11:25:14.423Z,99320.75
2019-05-22T11:28:16.355Z,99321.58
2019-05-22T11:31:18.390Z,99328.34
2019-05-22T11:34:20.322Z,99327.34
2019-05-22T11:37:22.358Z,99320.35
2019-05-22T11:40:25.741Z,99321.45
2019-05-22T11:43:28.471Z,99318.58
2019-05-22T11:46:30.520Z,99321.63
2019-05-22T11:49:32.994Z,99317.78
2019-05-22T11:52:35.789Z,99322.63
2019-05-22T11:55:44.949Z,99316.58
2019-05-22T11:58:42.231Z,99314.56
2019-05-22T12:01:44.257Z,99319.69
2019-05-22T12:04:48.979Z,99314.32
2019-05-22T12:07:52.479Z,99320.73
2019-05-22T12:10:55.496Z,99320.81
2019-05-22T12:13:57.781Z,99322.02
2019-05-22T12:16:59.719Z,99329.34
2019-05-22T12:20:04.337Z,99335.78
2019-05-22T12:23:06.627Z,99323.63
2019-05-22T12:26:08.750Z,99336.33
2019-05-22T12:29:10.620Z,99341.42
2019-05-22T12:32:12.635Z,99337.37
2019-05-22T12:35:15.205Z,99345.94
2019-05-22T12:38:18.422Z,99354.98
2019-05-22T12:41:21.595Z,99351.77
2019-05-22T12:44:25.188Z,99361.47
2019-05-22T12:47:27.326Z,99371.83
2019-05-22T12:50:31.342Z,99362.50
2019-05-22T12:53:35.500Z,99367.10
2019-05-22T12:56:37.421Z,99363.47
2019-05-22T12:59:40.308Z,99365.80
2019-05-22T13:02:43.251Z,99376.90
2019-05-22T13:05:46.685Z,99382.97
2019-05-22T13:08:49.071Z,99390.16
2019-05-22T13:11:51.153Z,99390.16
2019-05-22T13:15:08.498Z,99394.86
2019-05-22T13:17:59.477Z,99393.83
2019-05-22T13:21:02.603Z,99393.30
2019-05-22T13:24:18.724Z,99386.70
2019-05-22T13:27:23.118Z,99389.33
2019-05-22T13:30:28.472Z,99387.61
2019-05-22T13:33:31.296Z,99390.31
2019-05-22T13:36:36.012Z,99400.38
2019-05-22T13:39:38.664Z,99405.84
2019-05-22T13:42:43.098Z,99407.00
2019-05-22T13:45:45.422Z,99400.75
2019-05-22T13:48:47.761Z,99414.31
2019-05-22T13:51:50.720Z,99420.24
2019-05-22T13:54:52.748Z,99428.45
2019-05-22T13:57:54.905Z,99426.02
2019-05-22T14:00:57.227Z,99434.72
2019-05-22T14:04:03.111Z,99440.02
2019-05-22T14:07:05.762Z,99425.92
2019-05-22T14:10:09.517Z,99445.09
2019-05-22T14:13:12.137Z,99445.19
2019-05-22T14:16:14.528Z,99432.16
2019-05-22T14:19:16.579Z,99449.73
2019-05-22T14:22:18.653Z,99455.05
2019-05-22T14:25:24.467Z,99457.83
2019-05-22T14:28:28.833Z,99457.41
2019-05-22T14:31:33.323Z,99455.72
2019-05-22T14:34:39.075Z,99468.53
2019-05-22T14:37:42.804Z,99474.09
2019-05-22T14:40:44.876Z,99465.76
2019-05-22T14:43:46.856Z,99477.52
2019-05-22T14:46:49.024Z,99469.16
2019-05-22T14:49:52.148Z,99472.67
2019-05-22T14:52:56.631Z,99467.86
2019-05-22T14:55:59.337Z,99477.76
2019-05-22T14:59:01.825Z,99465.20
2019-05-22T15:02:03.745Z,99459.27
2019-05-22T15:05:07.585Z,99454.26
2019-05-22T15:08:10.271Z,99448.00
2019-05-22T15:11:14.645Z,99443.16
2019-05-22T15:14:18.393Z,99459.17
2019-05-22T15:17:31.589Z,99465.12
2019-05-22T15:20:27.888Z,99461.41
2019-05-22T15:23:31.996Z,99445.84
2019-05-22T15:26:36.418Z,99465.80
2019-05-22T15:29:39.943Z,99457.54
2019-05-22T15:32:42.739Z,99468.90
2019-05-22T15:35:45.914Z,99464.83
2019-05-22T15:38:49.468Z,99468.03
2019-05-22T15:41:53.547Z,99471.83
2019-05-22T15:44:55.790Z,99472.16
2019-05-22T15:48:01.508Z,99470.63
2019-05-22T15:51:05.384Z,99470.05
2019-05-22T15:54:07.729Z,99469.44
2019-05-22T15:57:12.356Z,99480.48
2019-05-22T16:00:16.461Z,99477.13
2019-05-22T16:03:20.570Z,99496.50
2019-05-22T16:06:27.885Z,99499.19
2019-05-22T16:09:31.028Z,99506.52
2019-05-22T16:12:33.124Z,99495.56
2019-05-22T16:15:36.027Z,99507.45
2019-05-22T16:18:40.998Z,99496.27
2019-05-22T16:21:46.070Z,99496.95
2019-05-22T16:24:50.522Z,99503.65
2019-05-22T16:27:53.592Z,99501.77
2019-05-22T16:30:58.697Z,99510.48
2019-05-22T16:34:01.295Z,99529.66
2019-05-22T16:37:04.143Z,99528.10
2019-05-22T16:40:10.709Z,99552.26
2019-05-22T16:43:14.889Z,99568.31
2019-05-22T16:46:18.596Z,99579.14
2019-05-22T16:49:24.030Z,99579.48
2019-05-22T16:52:30.790Z,99582.00
2019-05-22T16:55:37.497Z,99569.45
2019-05-22T16:58:41.790Z,99579.23
2019-05-22T17:01:58.815Z,99591.39
2019-05-22T17:04:51.586Z,99587.00
2019-05-22T17:07:55.997Z,99593.66
2019-05-22T17:11:01.068Z,99597.33
2019-05-22T17:14:06.257Z,99593.14
2019-05-22T17:17:11.479Z,99592.98
2019-05-22T17:20:20.078Z,99602.75
2019-05-22T17:23:25.273Z,99608.79
2019-05-22T17:26:30.943Z,99603.64
2019-05-22T17:29:33.987Z,99611.80
2019-05-22T17:32:36.331Z,99603.78
2019-05-22T17:35:43.566Z,99610.91
2019-05-22T17:38:45.568Z,99605.29
2019-05-22T17:41:48.516Z,99602.75
2019-05-22T17:44:51.064Z,99610.75
2019-05-22T17:47:54.971Z,99626.38
2019-05-22T17:51:00.167Z,99631.02
2019-05-22T17:54:02.183Z,99642.98
2019-05-22T17:57:07.551Z,99648.70
2019-05-22T18:00:12.847Z,99647.94
2019-05-22T18:03:15.005Z,99646.09
2019-05-22T18:06:16.872Z,99659.48
2019-05-22T18:09:19.159Z,99661.35
2019-05-22T18:12:22.937Z,99663.92
2019-05-22T18:15:26.386Z,99660.19
2019-05-22T18:18:28.840Z,99665.12
2019-05-22T18:21:33.430Z,99667.52
2019-05-22T18:24:35.786Z,99667.75
2019-05-22T18:27:42.248Z,99676.09
2019-05-22T18:30:46.031Z,99694.45
2019-05-22T18:33:47.963Z,99705.98
2019-05-22T18:36:53.567Z,99712.03
2019-05-22T18:39:56.019Z,99712.16
2019-05-22T18:43:00.368Z,99706.90
2019-05-22T18:46:02.495Z,99717.46
2019-05-22T18:49:04.685Z,99730.42
2019-05-22T18:52:08.189Z,99739.40
2019-05-22T18:55:10.098Z,99748.17
2019-05-22T18:58:12.538Z,99751.05
2019-05-22T19:01:16.411Z,99752.06
2019-05-22T19:04:18.969Z,99759.55
2019-05-22T19:07:22.130Z,99764.08
2019-05-22T19:10:25.704Z,99760.06
2019-05-22T19:13:27.580Z,99763.63
2019-05-22T19:16:32.349Z,99757.08
2019-05-22T19:19:35.217Z,99750.36
2019-05-22T19:22:39.567Z,99744.55
2019-05-22T19:25:41.858Z,99745.88
2019-05-22T19:28:45.257Z,99739.66
2019-05-22T19:31:49.105Z,99739.05
2019-05-22T19:34:51.040Z,99741.75
2019-05-22T19:37:54.372Z,99735.36
2019-05-22T19:40:58.087Z,99735.17
2019-05-22T19:44:01.849Z,99732.41
2019-05-22T19:47:06.574Z,99738.18
2019-05-22T19:50:22.352Z,99741.58
2019-05-22T19:53:19.321Z,99724.20
2019-05-22T19:56:22.899Z,99736.38
2019-05-22T19:59:24.076Z,99731.81
2019-05-22T20:02:26.227Z,99732.73
2019-05-22T20:05:29.220Z,99756.50
2019-05-22T20:08:31.783Z,99758.99
2019-05-22T20:11:33.808Z,99756.50
2019-05-22T20:14:38.401Z,99755.36
2019-05-22T20:17:42.132Z,99744.93
2019-05-22T20:20:44.901Z,99755.72
2019-05-22T20:23:47.178Z,99757.88
2019-05-22T20:26:49.393Z,99750.77
2019-05-22T20:29:53.178Z,99762.02
2019-05-22T20:32:57.303Z,99752.94
2019-05-22T20:35:59.549Z,99757.36
2019-05-22T20:39:01.560Z,99754.32
2019-05-22T20:42:06.410Z,99756.33
2019-05-22T20:45:10.268Z,99757.71
2019-05-22T20:48:23.315Z,99755.46
2019-05-22T20:51:26.521Z,99761.56
2019-05-22T20:54:30.066Z,99769.33
2019-05-22T20:57:33.473Z,99774.56
2019-05-22T21:00:36.310Z,99763.88
2019-05-22T21:03:38.544Z,99768.03
2019-05-22T21:06:48.006Z,99766.92
2019-05-22T21:09:50.033Z,99772.69
2019-05-22T21:12:53.273Z,99780.46
2019-05-22T21:15:55.427Z,99772.69
2019-05-22T21:18:57.368Z,99767.55
2019-05-22T21:22:00.455Z,99775.83
2019-05-22T21:25:04.113Z,99777.08
2019-05-22T21:28:06.592Z,99778.03
2019-05-22T21:31:09.669Z,99788.13
2019-05-22T21:34:12.307Z,99788.64
2019-05-22T21:37:17.516Z,99781.49
2019-05-22T21:40:22.114Z,99787.64
2019-05-22T21:43:24.262Z,99787.77
2019-05-22T21:46:26.232Z,99790.59
2019-05-22T21:49:29.237Z,99792.16
2019-05-22T21:52:33.618Z,99784.50
2019-05-22T21:55:36.228Z,99795.80
2019-05-22T21:58:38.732Z,99806.25
2019-05-22T22:01:52.390Z,99808.23
2019-05-22T22:04:54.740Z,99804.71
2019-05-22T22:07:57.929Z,99808.48
2019-05-22T22:11:01.191Z,99801.92
2019-05-22T22:14:04.581Z,99806.06
2019-05-22T22:17:08.415Z,99804.85
2019-05-22T22:20:11.293Z,99797.94
2019-05-22T22:23:14.996Z,99807.23
2019-05-22T22:26:25.417Z,99806.66
2019-05-22T22:29:21.555Z,99804.01
2019-05-22T22:32:25.424Z,99808.34
2019-05-22T22:35:27.547Z,99807.21
2019-05-22T22:38:32.505Z,99815.73
2019-05-22T22:41:34.814Z,99813.11
2019-05-22T22:44:38.266Z,99806.83
2019-05-22T22:47:44.957Z,99814.33
2019-05-22T22:50:47.330Z,99815.41
2019-05-22T22:53:49.937Z,99822.78
2019-05-22T22:56:52.501Z,99816.23
2019-05-22T22:59:55.015Z,99826.66
2019-05-22T23:02:58.168Z,99830.99
2019-05-22T23:06:00.282Z,99831.08
2019-05-22T23:09:03.958Z,99819.08
2019-05-22T23:12:07.581Z,99840.13
2019-05-22T23:15:13.061Z,99838.42
2019-05-22T23:18:31.220Z,99844.75
2019-05-22T23:21:33.057Z,99843.75
2019-05-22T23:24:38.041Z,99841.66
2019-05-22T23:27:40.061Z,99847.76
2019-05-22T23:30:42.093Z,99840.70
2019-05-22T23:33:45.763Z,99843.09
2019-05-22T23:36:48.142Z,99850.33
2019-05-22T23:39:52.547Z,99845.52
2019-05-22T23:42:56.447Z,99850.14
2019-05-22T23:45:58.460Z,99854.80
2019-05-22T23:49:00.539Z,99859.71
2019-05-22T23:52:04.058Z,99859.71
2019-05-22T23:55:09.343Z,99859.86
2019-05-22T23:58:12.501Z,99857.95
